createdAt,value
2018-08-11T00:00:34.272Z,4.00
2018-08-11T00:03:01.596Z,4.00
2018-08-11T00:05:28.890Z,3.90
2018-08-11T00:07:56.345Z,3.70
2018-08-11T00:10:23.588Z,3.77
2018-08-11T00:12:50.927Z,3.70
2018-08-11T00:15:18.592Z,3.47
2018-08-11T00:17:46.278Z,3.95
2018-08-11T00:20:15.024Z,3.80
2018-08-11T00:22:43.115Z,3.25
2018-08-11T00:25:11.271Z,3.30
2018-08-11T00:27:38.627Z,3.70
2018-08-11T00:30:08.437Z,3.80
2018-08-11T00:32:38.739Z,3.67
2018-08-11T00:35:07.352Z,3.22
2018-08-11T00:37:34.839Z,3.98
2018-08-11T00:40:02.125Z,3.20
2018-08-11T00:42:29.370Z,3.30
2018-08-11T00:45:00.662Z,3.05
2018-08-11T00:47:32.664Z,3.47
2018-08-11T00:49:59.992Z,3.45
2018-08-11T00:55:01.077Z,3.90
2018-08-11T00:57:28.318Z,2.70
2018-08-11T00:59:55.564Z,3.12
2018-08-11T01:02:22.964Z,3.15
2018-08-11T01:04:50.177Z,3.10
2018-08-11T01:07:17.495Z,3.15
2018-08-11T01:09:44.766Z,3.27
2018-08-11T01:12:12.309Z,2.90
2018-08-11T01:14:39.570Z,3.80
2018-08-11T01:17:06.894Z,3.08
2018-08-11T01:19:34.196Z,3.25
2018-08-11T01:22:01.460Z,3.30
2018-08-11T01:24:28.715Z,3.02
2018-08-11T01:26:56.072Z,3.10
2018-08-11T01:29:23.887Z,2.77
2018-08-11T01:31:51.161Z,3.20
2018-08-11T01:34:18.479Z,3.60
2018-08-11T01:36:45.910Z,3.40
2018-08-11T01:39:13.707Z,3.17
2018-08-11T01:41:41.820Z,3.20
2018-08-11T01:44:09.187Z,3.40
2018-08-11T01:46:36.472Z,3.05
2018-08-11T01:49:03.736Z,2.85
2018-08-11T01:51:30.988Z,3.20
2018-08-11T01:53:58.247Z,3.10
2018-08-11T01:56:25.586Z,2.87
2018-08-11T01:58:52.865Z,2.67
2018-08-11T02:01:20.537Z,3.25
2018-08-11T02:03:47.799Z,3.12
2018-08-11T02:06:15.065Z,2.83
2018-08-11T02:08:42.331Z,3.15
2018-08-11T02:11:09.593Z,3.12
2018-08-11T02:13:36.858Z,3.50
2018-08-11T02:16:04.116Z,2.90
2018-08-11T02:18:31.467Z,3.52
2018-08-11T02:20:58.697Z,3.25
2018-08-11T02:23:26.060Z,2.90
2018-08-11T02:25:53.361Z,3.27
2018-08-11T02:28:20.663Z,2.80
2018-08-11T02:30:47.954Z,2.67
2018-08-11T02:33:15.236Z,2.50
2018-08-11T02:35:42.551Z,3.10
2018-08-11T02:38:09.893Z,2.95
2018-08-11T02:40:37.218Z,3.37
2018-08-11T02:43:04.476Z,2.80
2018-08-11T02:45:31.817Z,2.60
2018-08-11T02:47:59.225Z,3.30
2018-08-11T02:50:26.516Z,2.65
2018-08-11T02:52:53.765Z,2.67
2018-08-11T02:55:21.027Z,2.70
2018-08-11T02:57:48.311Z,2.92
2018-08-11T03:00:16.218Z,3.00
2018-08-11T03:02:43.483Z,2.95
2018-08-11T03:05:10.703Z,2.83
2018-08-11T03:07:38.416Z,3.30
2018-08-11T03:10:07.763Z,3.05
2018-08-11T03:12:35.011Z,3.10
2018-08-11T03:15:09.657Z,3.30
2018-08-11T03:17:37.154Z,2.80
2018-08-11T03:20:05.782Z,2.60
2018-08-11T03:22:33.134Z,3.17
2018-08-11T03:25:00.368Z,2.70
2018-08-11T03:27:27.749Z,2.92
2018-08-11T03:29:55.109Z,3.47
2018-08-11T03:32:22.399Z,2.87
2018-08-11T03:34:49.795Z,3.07
2018-08-11T03:37:17.043Z,2.93
2018-08-11T03:39:44.318Z,3.23
2018-08-11T03:42:11.577Z,3.30
2018-08-11T03:44:38.812Z,3.10
2018-08-11T03:47:06.037Z,3.20
2018-08-11T03:49:33.302Z,3.30
2018-08-11T03:52:00.563Z,3.10
2018-08-11T03:54:27.799Z,3.92
2018-08-11T03:56:55.112Z,4.33
2018-08-11T03:59:23.331Z,5.70
2018-08-11T04:01:50.534Z,5.50
2018-08-11T04:04:17.782Z,4.10
2018-08-11T04:06:45.123Z,3.50
2018-08-11T04:09:12.284Z,3.30
2018-08-11T04:11:39.493Z,3.20
2018-08-11T04:14:06.724Z,2.98
2018-08-11T04:16:34.119Z,2.90
2018-08-11T04:19:01.499Z,3.00
2018-08-11T04:21:28.876Z,3.08
2018-08-11T04:23:56.088Z,3.60
2018-08-11T04:26:23.296Z,3.72
2018-08-11T04:28:50.539Z,3.95
2018-08-11T04:31:17.771Z,3.80
2018-08-11T04:33:44.983Z,4.40
2018-08-11T04:36:12.211Z,3.75
2018-08-11T04:38:39.435Z,3.27
2018-08-11T04:41:06.653Z,3.60
2018-08-11T04:43:33.912Z,3.95
2018-08-11T04:46:01.138Z,3.95
2018-08-11T04:48:28.368Z,4.25
2018-08-11T04:50:55.608Z,4.45
2018-08-11T04:53:22.867Z,4.60
2018-08-11T04:55:50.096Z,3.95
2018-08-11T04:58:17.307Z,4.15
2018-08-11T05:00:44.533Z,3.92
2018-08-11T05:03:11.763Z,4.35
2018-08-11T05:05:39.049Z,4.33
2018-08-11T05:08:06.281Z,4.70
2018-08-11T05:10:33.503Z,5.42
2018-08-11T05:13:00.820Z,5.58
2018-08-11T05:15:28.076Z,5.30
2018-08-11T05:17:55.298Z,5.63
2018-08-11T05:20:22.535Z,4.70
2018-08-11T05:22:49.750Z,5.00
2018-08-11T05:25:16.980Z,5.00
2018-08-11T05:27:45.387Z,5.17
2018-08-11T05:30:12.616Z,4.63
2018-08-11T05:32:39.824Z,4.80
2018-08-11T05:35:07.074Z,4.23
2018-08-11T05:37:34.399Z,5.20
2018-08-11T05:40:01.605Z,4.17
2018-08-11T05:42:28.838Z,5.42
2018-08-11T05:44:56.091Z,4.12
2018-08-11T05:47:23.345Z,4.07
2018-08-11T05:49:50.583Z,4.75
2018-08-11T05:52:17.787Z,5.03
2018-08-11T05:54:45.040Z,4.47
2018-08-11T05:57:12.276Z,4.25
2018-08-11T05:59:39.607Z,4.10
2018-08-11T06:02:06.924Z,4.47
2018-08-11T06:04:34.139Z,3.40
2018-08-11T06:07:01.415Z,3.33
2018-08-11T06:09:28.614Z,2.87
2018-08-11T06:11:55.836Z,3.70
2018-08-11T06:14:23.063Z,3.20
2018-08-11T06:16:50.335Z,3.13
2018-08-11T06:19:17.610Z,2.80
2018-08-11T06:21:44.867Z,3.23
2018-08-11T06:24:12.212Z,3.13
2018-08-11T06:26:39.444Z,3.33
2018-08-11T06:29:06.663Z,3.63
2018-08-11T06:31:34.017Z,3.00
2018-08-11T06:34:01.202Z,2.93
2018-08-11T06:36:28.442Z,2.97
2018-08-11T06:38:55.925Z,2.60
2018-08-11T06:41:23.204Z,2.90
2018-08-11T06:43:50.457Z,2.90
2018-08-11T06:46:17.724Z,2.97
2018-08-11T06:48:45.052Z,3.43
2018-08-11T06:51:12.274Z,3.30
2018-08-11T06:53:39.532Z,3.30
2018-08-11T06:56:06.792Z,2.47
2018-08-11T06:58:34.074Z,3.00
2018-08-11T07:01:01.320Z,2.87
2018-08-11T07:03:28.544Z,2.87
2018-08-11T07:05:55.889Z,2.50
2018-08-11T07:08:23.183Z,3.20
2018-08-11T07:10:50.408Z,3.30
2018-08-11T07:13:17.681Z,3.10
2018-08-11T07:15:45.653Z,3.60
2018-08-11T07:18:13.843Z,3.50
2018-08-11T07:20:41.351Z,2.73
2018-08-11T07:23:08.679Z,2.80
2018-08-11T07:25:35.910Z,3.17
2018-08-11T07:28:03.142Z,2.80
2018-08-11T07:30:30.415Z,3.23
2018-08-11T07:32:57.772Z,2.50
2018-08-11T07:35:29.578Z,2.50
2018-08-11T07:37:56.839Z,2.20
2018-08-11T07:40:24.374Z,3.43
2018-08-11T07:42:56.888Z,2.60
2018-08-11T07:45:24.142Z,2.60
2018-08-11T07:47:51.409Z,2.70
2018-08-11T07:50:18.703Z,3.20
2018-08-11T07:52:45.911Z,2.67
2018-08-11T07:55:13.390Z,2.60
2018-08-11T07:57:40.636Z,2.83
2018-08-11T08:00:08.784Z,2.60
2018-08-11T08:02:36.027Z,2.70
2018-08-11T08:05:03.713Z,2.90
2018-08-11T08:07:30.998Z,3.37
2018-08-11T08:09:58.212Z,3.10
2018-08-11T08:12:25.464Z,3.07
2018-08-11T08:14:52.738Z,3.03
2018-08-11T08:17:20.180Z,3.73
2018-08-11T08:19:47.864Z,4.43
2018-08-11T08:22:15.118Z,3.50
2018-08-11T08:24:42.456Z,4.37
2018-08-11T08:27:09.719Z,3.40
2018-08-11T08:29:36.959Z,3.90
2018-08-11T08:32:04.202Z,3.60
2018-08-11T08:34:31.474Z,3.70
2018-08-11T08:36:58.751Z,4.93
2018-08-11T08:39:25.983Z,4.00
2018-08-11T08:41:53.271Z,4.30
2018-08-11T08:44:20.497Z,4.00
2018-08-11T08:46:47.777Z,3.90
2018-08-11T08:49:15.000Z,4.10
2018-08-11T08:51:42.247Z,4.50
2018-08-11T08:54:09.500Z,3.93
2018-08-11T08:56:36.788Z,4.20
2018-08-11T08:59:04.357Z,4.50
2018-08-11T09:01:32.395Z,4.20
2018-08-11T09:03:59.671Z,4.03
2018-08-11T09:06:26.928Z,4.30
2018-08-11T09:08:54.228Z,4.67
2018-08-11T09:11:21.518Z,4.40
2018-08-11T09:13:48.780Z,4.87
2018-08-11T09:16:16.011Z,5.00
2018-08-11T09:18:43.255Z,4.43
2018-08-11T09:21:11.463Z,4.50
2018-08-11T09:23:38.684Z,4.77
2018-08-11T09:26:06.169Z,4.53
2018-08-11T09:28:33.394Z,4.97
2018-08-11T09:31:00.630Z,4.43
2018-08-11T09:33:27.888Z,4.80
2018-08-11T09:35:55.122Z,4.70
2018-08-11T09:38:22.445Z,5.27
2018-08-11T09:40:49.651Z,5.57
2018-08-11T09:43:16.911Z,5.10
2018-08-11T09:45:44.253Z,5.60
2018-08-11T09:48:11.575Z,4.77
2018-08-11T09:50:38.982Z,5.17
2018-08-11T09:53:06.242Z,4.60
2018-08-11T09:55:33.558Z,4.80
2018-08-11T09:58:00.838Z,5.03
2018-08-11T10:00:34.946Z,4.90
2018-08-11T10:03:02.212Z,4.80
2018-08-11T10:05:29.451Z,4.60
2018-08-11T10:07:56.700Z,4.70
2018-08-11T10:10:23.977Z,5.30
2018-08-11T10:12:51.189Z,4.90
2018-08-11T10:15:18.545Z,4.77
2018-08-11T10:17:45.799Z,4.57
2018-08-11T10:20:13.030Z,4.30
2018-08-11T10:22:40.284Z,4.80
2018-08-11T10:25:07.556Z,4.30
2018-08-11T10:27:34.818Z,4.60
2018-08-11T10:30:02.094Z,4.90
2018-08-11T10:32:29.376Z,4.70
2018-08-11T10:34:56.670Z,4.50
2018-08-11T10:37:23.892Z,4.90
2018-08-11T10:39:51.245Z,4.80
2018-08-11T10:42:18.508Z,4.70
2018-08-11T10:44:45.738Z,4.60
2018-08-11T10:47:13.091Z,5.00
2018-08-11T10:49:40.271Z,4.53
2018-08-11T10:52:07.470Z,4.33
2018-08-11T10:54:34.760Z,4.80
2018-08-11T10:57:02.123Z,4.97
2018-08-11T10:59:32.494Z,4.37
2018-08-11T11:02:01.117Z,5.00
2018-08-11T11:04:32.812Z,4.90
2018-08-11T11:07:02.903Z,5.13
2018-08-11T11:09:31.734Z,4.80
2018-08-11T11:11:59.414Z,4.67
2018-08-11T11:14:31.260Z,4.73
2018-08-11T11:16:58.612Z,5.07
2018-08-11T11:19:25.938Z,5.10
2018-08-11T11:21:53.224Z,4.63
2018-08-11T11:24:20.506Z,5.13
2018-08-11T11:26:47.734Z,5.67
2018-08-11T11:29:14.998Z,5.30
2018-08-11T11:31:42.259Z,5.13
2018-08-11T11:34:09.476Z,4.20
2018-08-11T11:36:36.710Z,4.47
2018-08-11T11:39:05.836Z,4.40
2018-08-11T11:41:33.059Z,3.50
2018-08-11T11:44:00.297Z,3.57
2018-08-11T11:46:27.656Z,3.50
2018-08-11T11:48:54.863Z,3.83
2018-08-11T11:51:22.220Z,4.00
2018-08-11T11:53:49.484Z,3.87
2018-08-11T11:56:16.711Z,3.73
2018-08-11T11:58:43.967Z,3.23
2018-08-11T12:01:11.214Z,3.57
2018-08-11T12:03:38.462Z,3.87
2018-08-11T12:06:05.681Z,3.57
2018-08-11T12:08:32.915Z,3.50
2018-08-11T12:11:00.171Z,3.63
2018-08-11T12:13:27.408Z,3.57
2018-08-11T12:15:54.676Z,3.00
2018-08-11T12:18:21.933Z,3.70
2018-08-11T12:20:49.143Z,3.17
2018-08-11T12:23:16.380Z,3.30
2018-08-11T12:25:43.651Z,2.97
2018-08-11T12:28:10.907Z,3.10
2018-08-11T12:30:38.106Z,3.30
2018-08-11T12:33:05.311Z,3.30
2018-08-11T12:35:32.601Z,2.90
2018-08-11T12:37:59.881Z,3.10
2018-08-11T12:40:27.177Z,2.90
2018-08-11T12:42:54.437Z,2.83
2018-08-11T12:45:21.689Z,2.60
2018-08-11T12:47:48.878Z,2.97
2018-08-11T12:50:16.235Z,2.80
2018-08-11T12:52:43.511Z,2.60
2018-08-11T12:55:10.763Z,2.77
2018-08-11T12:57:38.005Z,2.93
2018-08-11T13:00:05.795Z,2.40
2018-08-11T13:02:33.017Z,2.73
2018-08-11T13:05:00.279Z,2.63
2018-08-11T13:07:27.525Z,3.67
2018-08-11T13:09:54.721Z,2.77
2018-08-11T13:12:21.941Z,2.67
2018-08-11T13:14:49.185Z,2.90
2018-08-11T13:17:16.558Z,3.00
2018-08-11T13:19:43.779Z,3.07
2018-08-11T13:22:10.994Z,2.87
2018-08-11T13:24:38.277Z,2.77
2018-08-11T13:27:05.515Z,2.47
2018-08-11T13:29:32.799Z,2.63
2018-08-11T13:32:00.029Z,2.40
2018-08-11T13:34:27.258Z,2.53
2018-08-11T13:36:54.491Z,2.70
2018-08-11T13:39:21.694Z,2.80
2018-08-11T13:41:49.928Z,2.30
2018-08-11T13:44:18.421Z,2.60
2018-08-11T13:46:45.696Z,2.70
2018-08-11T13:49:12.935Z,2.97
2018-08-11T13:51:40.177Z,2.97
2018-08-11T13:54:07.646Z,2.63
2018-08-11T13:56:35.231Z,2.87
2018-08-11T13:59:02.522Z,2.70
2018-08-11T14:01:29.950Z,2.93
2018-08-11T14:03:57.203Z,2.63
2018-08-11T14:06:24.659Z,2.50
2018-08-11T14:08:51.903Z,2.90
2018-08-11T14:11:19.116Z,3.03
2018-08-11T14:13:46.406Z,2.33
2018-08-11T14:16:13.687Z,2.77
2018-08-11T14:18:40.883Z,2.30
2018-08-11T14:21:08.091Z,2.20
2018-08-11T14:23:35.336Z,2.33
2018-08-11T14:26:02.876Z,2.43
2018-08-11T14:28:30.129Z,2.10
2018-08-11T14:30:57.366Z,2.30
2018-08-11T14:33:24.712Z,2.20
2018-08-11T14:35:52.036Z,2.13
2018-08-11T14:38:19.256Z,2.70
2018-08-11T14:40:46.487Z,2.43
2018-08-11T14:43:13.751Z,2.10
2018-08-11T14:45:41.128Z,2.17
2018-08-11T14:48:08.351Z,2.40
2018-08-11T14:50:35.812Z,2.50
2018-08-11T14:53:03.099Z,2.80
2018-08-11T14:55:30.345Z,2.73
2018-08-11T14:57:57.563Z,2.50
2018-08-11T15:00:24.775Z,2.27
2018-08-11T15:02:51.979Z,2.70
2018-08-11T15:05:19.198Z,2.60
2018-08-11T15:07:46.468Z,2.63
2018-08-11T15:10:13.836Z,2.50
2018-08-11T15:12:40.955Z,2.40
2018-08-11T15:15:09.314Z,2.50
2018-08-11T15:17:36.536Z,2.50
2018-08-11T15:20:04.486Z,2.43
2018-08-11T15:22:31.768Z,2.50
2018-08-11T15:24:59.196Z,2.53
2018-08-11T15:27:26.419Z,2.33
2018-08-11T15:29:53.623Z,2.70
2018-08-11T15:32:20.849Z,2.30
2018-08-11T15:34:48.070Z,2.50
2018-08-11T15:37:15.319Z,2.73
2018-08-11T15:39:42.628Z,2.93
2018-08-11T15:42:09.848Z,2.40
2018-08-11T15:44:37.089Z,2.67
2018-08-11T15:47:04.454Z,2.40
2018-08-11T15:49:31.644Z,3.03
2018-08-11T15:51:58.959Z,3.00
2018-08-11T15:54:26.246Z,2.90
2018-08-11T15:56:53.464Z,2.60
2018-08-11T15:59:20.708Z,2.90
2018-08-11T16:01:47.979Z,2.97
2018-08-11T16:04:15.187Z,3.03
2018-08-11T16:06:42.472Z,2.57
2018-08-11T16:09:10.363Z,2.90
2018-08-11T16:11:37.784Z,3.40
2018-08-11T16:14:05.577Z,2.70
2018-08-11T16:16:32.835Z,2.70
2018-08-11T16:19:00.100Z,2.60
2018-08-11T16:21:27.318Z,2.60
2018-08-11T16:23:54.606Z,2.50
2018-08-11T16:26:21.927Z,2.63
2018-08-11T16:28:49.183Z,2.70
2018-08-11T16:31:16.450Z,2.80
2018-08-11T16:33:43.694Z,3.07
2018-08-11T16:36:10.895Z,2.80
2018-08-11T16:38:38.151Z,2.90
2018-08-11T16:41:05.651Z,2.50
2018-08-11T16:43:33.418Z,2.80
2018-08-11T16:46:00.698Z,3.13
2018-08-11T16:48:27.927Z,2.87
2018-08-11T16:50:55.217Z,2.97
2018-08-11T16:53:22.429Z,2.80
2018-08-11T16:55:49.688Z,2.97
2018-08-11T16:58:16.914Z,2.90
2018-08-11T17:00:44.295Z,2.50
2018-08-11T17:03:11.486Z,3.03
2018-08-11T17:05:38.762Z,3.50
2018-08-11T17:08:06.119Z,3.57
2018-08-11T17:10:33.338Z,2.93
2018-08-11T17:13:00.539Z,2.97
2018-08-11T17:15:27.844Z,3.00
2018-08-11T17:17:55.072Z,3.23
2018-08-11T17:20:22.307Z,2.90
2018-08-11T17:22:49.590Z,3.73
2018-08-11T17:25:16.798Z,3.67
2018-08-11T17:27:45.368Z,3.37
2018-08-11T17:30:12.583Z,2.70
2018-08-11T17:32:39.888Z,3.00
2018-08-11T17:35:07.103Z,2.70
2018-08-11T17:37:34.327Z,2.70
2018-08-11T17:40:01.590Z,2.73
2018-08-11T17:42:28.835Z,3.20
2018-08-11T17:44:56.127Z,2.63
2018-08-11T17:47:23.348Z,3.53
2018-08-11T17:49:50.569Z,3.03
2018-08-11T17:52:17.811Z,2.83
2018-08-11T17:54:45.026Z,2.97
2018-08-11T17:57:12.259Z,2.50
2018-08-11T17:59:39.461Z,2.73
2018-08-11T18:02:06.706Z,2.70
2018-08-11T18:04:34.009Z,3.27
2018-08-11T18:07:01.308Z,3.77
2018-08-11T18:09:28.486Z,2.63
2018-08-11T18:11:55.741Z,2.73
2018-08-11T18:14:22.962Z,2.87
2018-08-11T18:16:50.188Z,3.17
2018-08-11T18:19:17.403Z,3.20
2018-08-11T18:21:44.683Z,3.00
2018-08-11T18:24:11.907Z,3.00
2018-08-11T18:26:39.162Z,3.70
2018-08-11T18:29:06.453Z,3.10
2018-08-11T18:31:33.892Z,3.23
2018-08-11T18:34:01.280Z,2.77
2018-08-11T18:36:28.505Z,3.20
2018-08-11T18:38:55.702Z,3.10
2018-08-11T18:41:22.920Z,3.10
2018-08-11T18:43:50.139Z,3.20
2018-08-11T18:46:17.374Z,3.23
2018-08-11T18:48:44.591Z,3.10
2018-08-11T18:51:11.807Z,3.13
2018-08-11T18:53:39.033Z,2.80
2018-08-11T18:56:06.307Z,2.90
2018-08-11T18:58:33.552Z,3.20
2018-08-11T19:01:03.705Z,2.93
2018-08-11T19:03:31.049Z,2.77
2018-08-11T19:05:58.324Z,3.40
2018-08-11T19:08:25.587Z,2.70
2018-08-11T19:10:52.805Z,3.40
2018-08-11T19:13:20.060Z,3.00
2018-08-11T19:15:47.283Z,3.10
2018-08-11T19:18:14.482Z,3.10
2018-08-11T19:20:41.718Z,3.17
2018-08-11T19:23:08.986Z,2.70
2018-08-11T19:25:36.303Z,3.37
2018-08-11T19:28:03.534Z,3.30
2018-08-11T19:30:30.856Z,3.57
2018-08-11T19:32:58.619Z,3.23
2018-08-11T19:35:26.191Z,3.63
2018-08-11T19:37:53.463Z,3.00
2018-08-11T19:40:20.687Z,3.00
2018-08-11T19:42:47.933Z,3.40
2018-08-11T19:45:15.366Z,3.30
2018-08-11T19:47:42.819Z,3.83
2018-08-11T19:50:13.044Z,3.27
2018-08-11T19:52:44.116Z,3.50
2018-08-11T19:55:11.839Z,3.53
2018-08-11T19:57:39.704Z,3.63
2018-08-11T20:00:10.852Z,4.67
2018-08-11T20:02:38.601Z,4.83
2018-08-11T20:05:07.210Z,4.03
2018-08-11T20:07:36.590Z,3.87
2018-08-11T20:10:04.364Z,4.17
2018-08-11T20:12:34.339Z,3.70
2018-08-11T20:15:03.598Z,3.50
2018-08-11T20:17:33.819Z,3.60
2018-08-11T20:20:06.034Z,3.87
2018-08-11T20:22:33.355Z,3.90
2018-08-11T20:25:03.673Z,3.90
2018-08-11T20:27:33.898Z,3.90
2018-08-11T20:30:05.425Z,4.50
2018-08-11T20:32:36.308Z,5.90
2018-08-11T20:35:05.354Z,4.58
2018-08-11T20:37:35.604Z,3.95
2018-08-11T20:40:05.820Z,4.75
2018-08-11T20:42:36.677Z,4.60
2018-08-11T20:45:07.921Z,4.62
2018-08-11T20:47:38.533Z,5.15
2018-08-11T20:50:10.209Z,4.83
2018-08-11T20:52:40.809Z,4.70
2018-08-11T20:55:14.300Z,4.97
2018-08-11T20:57:45.814Z,3.98
2018-08-11T21:00:14.744Z,4.58
2018-08-11T21:02:46.593Z,5.12
2018-08-11T21:05:16.480Z,5.95
2018-08-11T21:07:47.948Z,4.80
2018-08-11T21:10:18.760Z,4.87
2018-08-11T21:12:48.822Z,4.70
2018-08-11T21:15:19.063Z,5.92
2018-08-11T21:17:49.417Z,5.60
2018-08-11T21:20:19.985Z,5.00
2018-08-11T21:22:49.344Z,4.90
2018-08-11T21:25:20.372Z,5.05
2018-08-11T21:27:50.851Z,5.55
2018-08-11T21:30:23.790Z,5.85
2018-08-11T21:32:53.755Z,4.80
2018-08-11T21:35:24.849Z,5.58
2018-08-11T21:37:56.313Z,5.12
2018-08-11T21:40:28.040Z,4.87
2018-08-11T21:42:56.146Z,5.20
2018-08-11T21:45:26.492Z,5.62
2018-08-11T21:47:53.911Z,4.65
2018-08-11T21:50:23.330Z,4.47
2018-08-11T21:52:55.489Z,4.95
2018-08-11T21:55:25.824Z,4.90
2018-08-11T21:57:58.410Z,4.85
2018-08-11T22:00:35.967Z,5.33
2018-08-11T22:03:06.947Z,5.33
2018-08-11T22:05:38.211Z,5.58
2018-08-11T22:08:11.793Z,4.80
2018-08-11T22:10:42.485Z,5.05
2018-08-11T22:13:10.481Z,4.80
2018-08-11T22:15:41.888Z,4.95
2018-08-11T22:18:12.878Z,5.28
2018-08-11T22:20:40.323Z,4.95
2018-08-11T22:23:12.638Z,5.03
2018-08-11T22:25:40.420Z,5.53
2018-08-11T22:28:09.336Z,5.12
2018-08-11T22:30:36.534Z,5.10
2018-08-11T22:33:04.312Z,5.25
2018-08-11T22:35:31.634Z,6.22
2018-08-11T22:37:58.875Z,5.95
2018-08-11T22:40:26.087Z,6.47
2018-08-11T22:42:53.330Z,5.78
2018-08-11T22:45:20.510Z,5.55
2018-08-11T22:47:47.751Z,5.00
2018-08-11T22:50:15.008Z,5.20
2018-08-11T22:52:42.325Z,5.45
2018-08-11T22:55:09.567Z,5.00
2018-08-11T22:57:37.120Z,5.17
2018-08-11T23:00:07.178Z,5.47
2018-08-11T23:02:34.522Z,4.85
2018-08-11T23:05:01.755Z,5.33
2018-08-11T23:07:29.007Z,5.33
2018-08-11T23:09:56.246Z,5.25
2018-08-11T23:12:23.471Z,5.30
2018-08-11T23:14:50.658Z,5.00
2018-08-11T23:17:17.838Z,5.35
2018-08-11T23:19:45.326Z,5.00
2018-08-11T23:22:12.710Z,4.87
2018-08-11T23:24:40.055Z,5.08
2018-08-11T23:27:07.940Z,5.67
2018-08-11T23:29:35.168Z,5.10
2018-08-11T23:32:02.666Z,4.78
2018-08-11T23:34:29.831Z,5.25
2018-08-11T23:36:57.978Z,5.03
2018-08-11T23:39:25.183Z,5.10
2018-08-11T23:41:52.411Z,5.05
2018-08-11T23:44:19.623Z,4.37
2018-08-11T23:46:46.884Z,4.20
2018-08-11T23:49:14.098Z,4.95
2018-08-11T23:51:41.553Z,4.53
2018-08-11T23:54:08.794Z,4.75
2018-08-11T23:56:36.088Z,4.78
2018-08-11T23:59:03.340Z,4.45
